Time;durP1;ratioP1;P1;durP2;ratioP2;P2;SDS_P1;SDS_P2;PMS_P1;PMS_P2;Temp;Humidity;BMP_temperature;BMP_pressure;BME280_temperature;BME280_humidity;BME280_pressure;Samples;Min_cycle;Max_cycle;Signal;HPM_P1;HPM_P2
2022/10/08 00:01:12;;;;;;;11.53;7.03;;;7.90;99.90;7.10;100460;;;;570893;248;24072;-82
2022/10/08 00:03:40;;;;;;;7.13;6.40;;;7.90;99.90;7.10;100448;;;;574932;248;24079;-79
2022/10/08 00:06:14;;;;;;;14.03;6.83;;;7.90;99.90;7.20;100437;;;;578910;248;24132;-82
2022/10/08 00:08:45;;;;;;;7.57;6.13;;;7.90;99.90;7.20;100441;;;;570474;248;24121;-81
2022/10/08 00:11:09;;;;;;;11.50;7.23;;;8.00;99.90;7.20;100440;;;;578900;247;24102;-81
2022/10/08 00:13:42;;;;;;;9.73;7.17;;;8.00;99.90;7.20;100433;;;;573622;247;24118;-81
2022/10/08 00:16:11;;;;;;;7.40;6.57;;;8.00;99.90;7.20;100429;;;;570485;248;24120;-82
2022/10/08 00:18:42;;;;;;;12.03;6.43;;;8.00;99.90;7.20;100418;;;;579009;248;24145;-83
2022/10/08 00:21:13;;;;;;;8.03;6.10;;;7.90;99.90;7.20;100421;;;;578949;247;24105;-84
2022/10/08 00:23:37;;;;;;;12.10;6.37;;;8.00;99.90;7.20;100420;;;;578899;248;24127;-84
2022/10/08 00:26:06;;;;;;;11.27;7.00;;;8.00;99.90;7.30;100416;;;;570467;248;24093;-82
2022/10/08 00:28:40;;;;;;;11.00;6.30;;;8.00;99.90;7.30;100410;;;;570233;248;24177;-83
2022/10/08 00:31:10;;;;;;;14.07;6.53;;;8.00;99.90;7.30;100409;;;;570066;248;24091;-79
2022/10/08 00:33:39;;;;;;;9.30;5.83;;;8.00;99.90;7.20;100421;;;;578705;248;24131;-82
2022/10/08 00:36:07;;;;;;;9.30;5.90;;;8.00;99.90;7.20;100401;;;;570438;248;24082;-82
2022/10/08 00:38:34;;;;;;;9.43;7.90;;;8.00;99.90;7.20;100393;;;;573832;248;35357;-82
2022/10/08 00:41:04;;;;;;;9.20;5.63;;;7.90;99.90;7.20;100397;;;;579137;248;24125;-84
2022/10/08 00:43:39;;;;;;;8.07;5.40;;;8.00;99.90;7.20;100397;;;;579507;248;24088;-81
2022/10/08 00:46:07;;;;;;;9.87;5.83;;;8.00;99.90;7.20;100387;;;;579495;248;24095;-84
2022/10/08 00:48:40;;;;;;;12.70;6.17;;;8.00;99.90;7.20;100388;;;;578283;248;24098;-84
2022/10/08 00:51:07;;;;;;;11.67;5.87;;;8.00;99.90;7.30;100382;;;;570295;248;24083;-84
2022/10/08 00:53:32;;;;;;;12.67;8.37;;;8.00;99.90;7.30;100375;;;;575463;246;35299;-82
2022/10/08 00:56:00;;;;;;;10.93;8.90;;;8.10;99.90;7.30;100379;;;;566782;248;35349;-83
2022/10/08 00:58:28;;;;;;;9.73;7.20;;;8.10;99.90;7.30;100378;;;;571622;248;24242;-83
2022/10/08 01:00:57;;;;;;;12.83;6.13;;;8.10;99.90;7.30;100375;;;;571335;248;24139;-84
2022/10/08 01:03:26;;;;;;;9.07;5.57;;;8.10;99.90;7.30;100378;;;;571189;248;24098;-83
2022/10/08 01:06:25;;;;;;;10.30;7.55;;;8.10;99.90;7.40;100384;;;;574850;248;35441;-85
2022/10/08 01:09:35;;;;;;;10.77;6.63;;;8.10;99.90;7.30;100377;;;;570960;248;24181;-84
2022/10/08 01:12:05;;;;;;;7.70;6.07;;;8.10;99.90;7.30;100374;;;;571202;248;24317;-82
2022/10/08 01:14:52;;;;;;;8.43;5.03;;;8.10;99.90;7.20;100364;;;;572987;247;24100;-81
2022/10/08 01:18:03;;;;;;;9.07;5.83;;;8.00;99.90;7.20;100369;;;;579316;248;24085;-79
2022/10/08 01:20:38;;;;;;;7.80;6.30;;;8.00;99.90;7.20;100361;;;;567782;248;24117;-80
2022/10/08 01:23:21;;;;;;;11.10;5.33;;;8.00;99.90;7.20;100354;;;;579291;248;24079;-79
2022/10/08 01:26:25;;;;;;;9.93;6.27;;;8.00;99.90;7.20;100356;;;;579292;248;24109;-81
2022/10/08 01:29:05;;;;;;;9.43;5.73;;;8.00;99.90;7.20;100364;;;;578469;248;24098;-80
2022/10/08 01:31:39;;;;;;;13.30;6.30;;;8.00;99.90;7.20;100356;;;;578910;248;24113;-81
2022/10/08 01:34:10;;;;;;;9.93;6.10;;;8.00;99.90;7.10;100348;;;;578830;248;24093;-82
2022/10/08 01:36:38;;;;;;;10.63;5.53;;;7.90;99.90;7.10;100340;;;;578789;248;24105;-80
2022/10/08 01:39:08;;;;;;;8.00;5.87;;;7.90;99.90;7.10;100349;;;;573987;248;24114;-82
2022/10/08 01:41:36;;;;;;;8.73;6.57;;;7.80;99.90;7.00;100346;;;;570878;248;24098;-81
2022/10/08 01:44:34;;;;;;;10.70;6.37;;;7.80;99.90;6.90;100342;;;;579441;248;24075;-81
2022/10/08 01:47:02;;;;;;;10.87;6.43;;;7.70;99.90;6.80;100342;;;;570532;248;24106;-84
2022/10/08 01:49:30;;;;;;;8.97;6.10;;;7.60;99.90;6.80;100337;;;;573648;248;24119;-82
2022/10/08 01:52:12;;;;;;;10.43;6.20;;;7.60;99.90;6.70;100333;;;;570413;248;24097;-84
2022/10/08 01:54:41;;;;;;;6.60;5.93;;;7.50;99.90;6.70;100330;;;;570627;248;24083;-83
2022/10/08 01:57:09;;;;;;;8.13;5.80;;;7.50;99.90;6.60;100326;;;;578114;248;24105;-83
2022/10/08 01:59:45;;;;;;;9.53;6.40;;;7.40;99.90;6.60;100319;;;;573903;248;24101;-80
2022/10/08 02:02:26;;;;;;;8.47;6.77;;;7.30;99.90;6.50;100318;;;;577954;248;24102;-80
2022/10/08 02:04:57;;;;;;;10.07;6.40;;;7.30;99.90;6.50;100333;;;;571981;248;24114;-83
2022/10/08 02:07:22;;;;;;;11.53;7.17;;;7.30;99.90;6.40;100318;;;;571016;248;24091;-81
2022/10/08 02:09:50;;;;;;;10.93;6.83;;;7.20;99.90;6.40;100324;;;;574100;248;24111;-84
2022/10/08 02:12:18;;;;;;;10.40;7.00;;;7.20;99.90;6.30;100319;;;;572954;248;24091;-80
2022/10/08 02:14:47;;;;;;;12.57;7.13;;;7.00;99.90;6.20;100311;;;;573643;248;24124;-80
2022/10/08 02:17:42;;;;;;;10.87;7.77;;;7.00;99.90;6.20;100315;;;;558437;253;24107;-80
2022/10/08 02:20:12;;;;;;;12.53;7.37;;;7.00;99.90;6.10;100303;;;;570837;248;24126;-79
2022/10/08 02:22:40;;;;;;;13.63;7.40;;;6.90;99.90;6.00;100297;;;;578930;247;24141;-81
2022/10/08 02:25:20;;;;;;;11.03;7.57;;;6.90;99.90;6.00;100303;;;;573307;248;24144;-79
2022/10/08 02:27:58;;;;;;;10.03;7.37;;;6.70;99.90;6.00;100295;;;;577169;248;24117;-79
2022/10/08 02:30:26;;;;;;;10.27;7.27;;;6.70;99.90;5.90;100304;;;;577695;248;24115;-79
2022/10/08 02:32:54;;;;;;;10.57;7.13;;;6.70;99.90;5.90;100299;;;;573100;248;24165;-78
2022/10/08 02:35:37;;;;;;;14.70;7.23;;;6.70;99.90;5.90;100292;;;;578651;248;24087;-79
2022/10/08 02:38:08;;;;;;;10.67;6.93;;;6.70;99.90;5.90;100291;;;;570134;248;24107;-79
2022/10/08 02:40:36;;;;;;;8.63;6.07;;;6.70;99.90;5.90;100292;;;;578595;248;24134;-80
2022/10/08 02:43:04;;;;;;;13.33;7.67;;;6.70;99.90;5.90;100288;;;;573040;248;24121;-80
2022/10/08 02:45:33;;;;;;;12.23;7.57;;;6.70;99.90;5.90;100282;;;;572995;248;24134;-81
2022/10/08 02:47:59;;;;;;;11.57;7.73;;;6.70;99.90;5.90;100284;;;;572811;248;24150;-80
2022/10/08 02:50:27;;;;;;;12.20;7.33;;;6.70;99.90;5.80;100289;;;;570350;248;24113;-80
2022/10/08 02:52:55;;;;;;;9.17;7.07;;;6.70;99.90;5.80;100286;;;;577993;248;24095;-78
2022/10/08 02:56:07;;;;;;;9.80;6.83;;;6.60;99.90;5.80;100287;;;;570330;248;24102;-80
2022/10/08 02:58:35;;;;;;;13.73;10.23;;;6.60;99.90;5.70;100286;;;;581393;246;24069;-81
2022/10/08 03:01:07;;;;;;;15.97;9.70;;;6.50;99.90;5.70;100281;;;;571834;248;24134;-79
2022/10/08 03:03:35;;;;;;;12.27;9.73;;;6.40;99.90;5.60;100278;;;;578882;247;25152;-79
2022/10/08 03:06:03;;;;;;;13.07;10.17;;;6.40;99.90;5.60;100283;;;;578638;247;24094;-79
2022/10/08 03:08:34;;;;;;;12.77;10.47;;;6.40;99.90;5.60;100276;;;;573458;248;24095;-79
2022/10/08 03:10:59;;;;;;;14.30;10.43;;;6.40;99.90;5.60;100274;;;;569009;248;24099;-80
2022/10/08 03:13:27;;;;;;;11.37;10.00;;;6.40;99.90;5.60;100268;;;;569908;248;24102;-79
2022/10/08 03:15:56;;;;;;;17.07;11.03;;;6.40;99.90;5.60;100257;;;;570852;248;24107;-79
2022/10/08 03:18:25;;;;;;;12.97;10.20;;;6.40;99.90;5.70;100261;;;;571147;248;24114;-80
2022/10/08 03:20:57;;;;;;;13.60;9.87;;;6.50;99.90;5.70;100267;;;;570855;248;24121;-81
2022/10/08 03:23:26;;;;;;;13.13;9.73;;;6.50;99.90;5.70;100271;;;;570865;248;24091;-82
2022/10/08 03:25:57;;;;;;;16.73;8.17;;;6.60;99.90;5.80;100276;;;;573886;248;24170;-81
2022/10/08 03:28:27;;;;;;;11.80;7.17;;;6.60;99.90;5.80;100268;;;;570495;248;24086;-82
2022/10/08 03:30:55;;;;;;;11.23;7.33;;;6.60;99.90;5.80;100269;;;;579758;248;24107;-81
2022/10/08 03:33:23;;;;;;;10.03;7.03;;;6.60;99.90;5.90;100276;;;;579499;248;24079;-80
2022/10/08 03:35:51;;;;;;;11.67;7.80;;;6.70;99.90;5.90;100262;;;;570807;248;24160;-80
2022/10/08 03:38:19;;;;;;;11.00;6.70;;;6.70;99.90;5.90;100260;;;;570313;248;24094;-79
2022/10/08 03:40:54;;;;;;;10.67;6.77;;;6.70;99.90;5.90;100256;;;;571040;248;24103;-78
2022/10/08 03:43:24;;;;;;;9.97;6.60;;;6.80;99.90;6.00;100256;;;;579023;248;24101;-79
2022/10/08 03:45:52;;;;;;;10.87;7.07;;;6.80;99.90;6.00;100258;;;;570054;248;24150;-79
2022/10/08 03:48:23;;;;;;;8.07;6.60;;;6.80;99.90;6.00;100244;;;;573455;248;24096;-80
2022/10/08 03:50:54;;;;;;;7.23;5.50;;;6.80;99.90;6.00;100247;;;;573126;248;24100;-81
2022/10/08 03:53:22;;;;;;;11.43;6.43;;;6.90;99.90;6.10;100248;;;;570541;248;24127;-79
2022/10/08 03:55:49;;;;;;;14.13;6.90;;;6.90;99.90;6.10;100245;;;;570520;248;24089;-79
2022/10/08 03:58:21;;;;;;;9.17;6.57;;;6.90;99.90;6.10;100254;;;;570553;248;24082;-79
2022/10/08 04:01:05;;;;;;;9.80;6.17;;;6.90;99.90;6.20;100255;;;;579021;247;24094;-80
2022/10/08 04:03:33;;;;;;;8.27;6.33;;;7.00;99.90;6.20;100249;;;;579087;248;24122;-79
2022/10/08 04:06:01;;;;;;;9.03;6.10;;;7.00;99.90;6.20;100255;;;;579498;247;24075;-79
2022/10/08 04:08:29;;;;;;;9.13;6.10;;;7.00;99.90;6.30;100248;;;;570915;248;24099;-80
2022/10/08 04:10:57;;;;;;;8.00;5.63;;;7.10;99.90;6.30;100246;;;;570823;248;24099;-78
2022/10/08 04:13:25;;;;;;;7.90;6.00;;;7.10;99.90;6.30;100252;;;;570557;248;24178;-79
2022/10/08 04:15:54;;;;;;;7.40;5.70;;;7.20;99.90;6.40;100253;;;;570442;248;24229;-80
2022/10/08 04:18:21;;;;;;;8.23;6.23;;;7.20;99.90;6.40;100252;;;;573010;248;24115;-79
2022/10/08 04:20:49;;;;;;;9.50;6.40;;;7.30;99.90;6.50;100249;;;;570430;248;24087;-80
2022/10/08 04:23:17;;;;;;;13.43;6.50;;;7.30;99.90;6.60;100247;;;;570335;248;24108;-80
2022/10/08 04:25:51;;;;;;;10.40;6.03;;;7.30;99.90;6.60;100248;;;;570743;248;24109;-84
2022/10/08 04:28:16;;;;;;;6.70;5.53;;;7.40;99.90;6.60;100238;;;;580507;246;24131;-84
2022/10/08 04:30:44;;;;;;;6.70;5.90;;;7.40;99.90;6.60;100238;;;;571796;248;24104;-80
2022/10/08 04:33:13;;;;;;;10.67;6.47;;;7.40;99.90;6.60;100236;;;;573358;248;24117;-82
2022/10/08 04:35:41;;;;;;;11.00;6.50;;;7.40;99.90;6.70;100233;;;;570951;248;24082;-82
2022/10/08 04:38:08;;;;;;;7.67;4.97;;;7.40;99.90;6.70;100238;;;;571310;248;24103;-81
2022/10/08 04:40:36;;;;;;;7.53;5.60;;;7.50;99.90;6.70;100236;;;;570700;248;24089;-83
2022/10/08 04:43:05;;;;;;;9.73;5.43;;;7.50;99.90;6.60;100240;;;;570737;248;24104;-83
2022/10/08 04:45:33;;;;;;;10.10;5.40;;;7.40;99.90;6.70;100243;;;;570321;248;24129;-83
2022/10/08 04:48:01;;;;;;;9.30;5.37;;;7.50;99.90;6.70;100241;;;;570136;248;24106;-83
2022/10/08 04:50:29;;;;;;;7.00;5.40;;;7.50;99.90;6.80;100239;;;;570205;248;24123;-83
2022/10/08 04:52:57;;;;;;;11.80;6.33;;;7.60;99.90;6.90;100248;;;;570080;248;25138;-83
2022/10/08 04:55:25;;;;;;;8.07;5.43;;;7.70;99.90;7.00;100240;;;;570518;248;24083;-84
2022/10/08 04:57:52;;;;;;;10.47;5.73;;;7.70;99.90;7.10;100239;;;;570533;248;24076;-81
2022/10/08 05:00:20;;;;;;;6.83;6.13;;;7.80;99.90;7.10;100235;;;;570580;248;24087;-83
2022/10/08 05:02:48;;;;;;;7.70;6.00;;;7.90;99.90;7.20;100234;;;;570438;248;25124;-83
2022/10/08 05:05:16;;;;;;;7.87;5.90;;;7.90;99.90;7.20;100241;;;;570213;248;24097;-83
2022/10/08 05:07:44;;;;;;;9.33;5.80;;;8.00;99.90;7.20;100244;;;;570278;248;24079;-83
2022/10/08 05:10:12;;;;;;;10.10;5.90;;;8.00;99.90;7.20;100241;;;;570227;248;24079;-83
2022/10/08 05:12:41;;;;;;;10.53;6.03;;;8.10;99.90;7.30;100242;;;;570291;244;24105;-83
2022/10/08 05:15:09;;;;;;;6.10;5.33;;;8.00;99.90;7.30;100243;;;;570273;248;24087;-81
2022/10/08 05:17:37;;;;;;;9.83;5.43;;;8.10;99.90;7.40;100250;;;;570760;248;24090;-83
2022/10/08 05:20:08;;;;;;;6.63;5.50;;;8.10;99.90;7.40;100250;;;;570262;248;24126;-81
2022/10/08 05:22:33;;;;;;;7.93;5.57;;;8.20;99.90;7.50;100251;;;;578745;247;24093;-82
2022/10/08 05:25:00;;;;;;;13.13;5.23;;;8.30;99.90;7.60;100255;;;;570192;248;24090;-82
2022/10/08 05:27:30;;;;;;;15.93;6.17;;;8.30;99.90;7.60;100252;;;;570306;248;24111;-83
2022/10/08 05:29:56;;;;;;;18.23;6.97;;;8.40;99.90;7.70;100255;;;;570162;248;24149;-81
2022/10/08 05:32:24;;;;;;;13.63;5.50;;;8.50;99.90;7.90;100245;;;;570294;248;24118;-81
2022/10/08 05:34:52;;;;;;;7.83;5.07;;;8.60;99.90;8.00;100257;;;;570301;248;24104;-81
2022/10/08 05:37:20;;;;;;;6.87;5.30;;;8.70;99.90;8.20;100253;;;;570307;248;24107;-80
2022/10/08 05:39:52;;;;;;;10.30;5.50;;;8.90;99.90;8.30;100260;;;;571638;248;24104;-81
2022/10/08 05:42:16;;;;;;;11.60;5.53;;;9.00;99.90;8.40;100259;;;;570876;248;24177;-81
2022/10/08 05:44:44;;;;;;;13.63;5.20;;;9.20;99.90;8.50;100247;;;;571092;248;24153;-80
2022/10/08 05:47:12;;;;;;;10.03;5.47;;;9.20;99.90;8.60;100250;;;;570978;248;24075;-82
2022/10/08 05:49:40;;;;;;;9.13;5.03;;;9.30;99.90;8.70;100248;;;;570761;248;24112;-83
2022/10/08 05:52:08;;;;;;;9.60;5.60;;;9.40;99.90;8.80;100243;;;;579496;247;24120;-80
2022/10/08 05:54:36;;;;;;;8.07;5.47;;;9.50;99.90;8.80;100243;;;;570773;248;24084;-80
2022/10/08 05:57:04;;;;;;;11.83;5.13;;;9.60;99.90;8.90;100246;;;;570320;248;24124;-81
2022/10/08 05:59:33;;;;;;;9.20;5.37;;;9.70;99.90;9.00;100258;;;;570585;248;24086;-83
2022/10/08 06:02:01;;;;;;;14.13;5.70;;;9.70;99.90;9.00;100246;;;;570646;248;24097;-83
2022/10/08 06:04:28;;;;;;;11.10;5.57;;;9.70;99.90;9.10;100243;;;;571028;248;24083;-83
2022/10/08 06:06:56;;;;;;;11.83;5.83;;;9.80;99.90;9.10;100233;;;;571537;248;24119;-84
2022/10/08 06:09:24;;;;;;;18.07;6.17;;;9.80;99.90;9.20;100241;;;;571349;248;24180;-84
2022/10/08 06:11:52;;;;;;;12.93;5.97;;;9.90;99.90;9.30;100250;;;;571290;248;24119;-83
2022/10/08 06:14:20;;;;;;;11.00;4.87;;;9.90;99.90;9.50;100240;;;;570756;248;24151;-82
2022/10/08 06:16:49;;;;;;;12.67;6.90;;;10.40;99.90;9.80;100244;;;;570731;248;24095;-81
2022/10/08 06:19:17;;;;;;;11.43;6.93;;;10.80;99.90;10.30;100246;;;;570875;248;24089;-84
2022/10/08 06:21:46;;;;;;;25.10;6.83;;;11.50;99.90;11.10;100254;;;;568609;248;24135;-82
2022/10/08 06:24:15;;;;;;;19.70;5.93;;;12.50;99.90;12.30;100247;;;;568702;248;24074;-82
2022/10/08 06:26:43;;;;;;;7.63;5.50;;;12.50;99.90;14.10;100253;;;;579698;248;24063;-80
2022/10/08 06:29:11;;;;;;;6.00;4.47;;;14.10;99.90;16.00;100251;;;;567599;248;24134;-81
2022/10/08 06:31:39;;;;;;;5.90;4.57;;;15.90;99.90;17.40;100253;;;;572124;248;24111;-82
2022/10/08 06:34:10;;;;;;;8.03;4.60;;;17.50;99.90;18.40;100256;;;;569417;248;24138;-84
2022/10/08 06:36:37;;;;;;;9.30;3.83;;;18.60;99.90;18.60;100252;;;;571940;248;24091;-80
2022/10/08 06:39:02;;;;;;;6.40;4.37;;;19.10;99.90;18.00;100253;;;;553969;258;24154;-84
2022/10/08 06:41:33;;;;;;;7.13;4.10;;;18.80;99.90;17.30;100260;;;;570394;249;24083;-82
2022/10/08 06:43:58;;;;;;;6.10;3.73;;;18.30;99.90;16.80;100252;;;;568760;248;24079;-81
2022/10/08 06:46:26;;;;;;;4.83;3.10;;;17.80;99.90;16.60;100248;;;;568761;248;25179;-82
2022/10/08 06:48:55;;;;;;;7.63;3.57;;;17.20;99.90;16.40;100245;;;;568801;248;24065;-80
2022/10/08 06:51:23;;;;;;;4.67;3.77;;;17.20;99.90;16.20;100249;;;;569933;248;24160;-82
2022/10/08 06:53:57;;;;;;;6.50;4.37;;;17.00;99.90;16.20;100243;;;;569844;247;24138;-83
2022/10/08 06:56:24;;;;;;;5.83;3.50;;;16.80;99.90;16.20;100243;;;;569763;248;24106;-81
2022/10/08 06:58:53;;;;;;;7.33;4.30;;;16.80;99.90;16.20;100248;;;;571878;248;24091;-82
2022/10/08 07:01:25;;;;;;;8.90;4.33;;;16.80;99.90;16.20;100249;;;;574979;248;24070;-81
2022/10/08 07:03:53;;;;;;;12.03;4.97;;;16.80;99.90;16.40;100255;;;;580896;248;24107;-84
2022/10/08 07:06:24;;;;;;;8.30;5.07;;;16.90;99.90;16.60;100251;;;;571732;248;24070;-81
2022/10/08 07:08:57;;;;;;;9.63;4.27;;;17.10;99.90;16.90;100261;;;;569317;248;24091;-84
2022/10/08 07:11:22;;;;;;;4.63;4.23;;;17.40;99.90;17.20;100265;;;;570628;248;24102;-83
2022/10/08 07:13:50;;;;;;;10.47;4.03;;;17.60;99.90;17.40;100265;;;;571104;248;23143;-84
2022/10/08 07:16:21;;;;;;;6.67;4.70;;;17.90;99.90;17.70;100269;;;;571305;248;24094;-82
2022/10/08 07:18:46;;;;;;;10.97;4.63;;;18.10;99.90;18.20;100267;;;;568679;248;24119;-83
2022/10/08 07:21:18;;;;;;;7.00;4.70;;;19.30;99.90;19.10;100269;;;;569278;248;24094;-83
2022/10/08 07:23:44;;;;;;;8.00;4.80;;;19.30;99.90;20.30;100270;;;;566856;248;24093;-86
2022/10/08 07:26:23;;;;;;;9.47;5.33;;;20.40;99.90;22.00;100272;;;;568215;248;24106;-82
2022/10/08 07:28:54;;;;;;;8.03;5.27;;;22.10;99.30;23.90;100277;;;;567986;248;24076;-84
2022/10/08 07:31:26;;;;;;;6.53;5.30;;;23.90;94.50;24.90;100279;;;;567750;248;24125;-81
2022/10/08 07:33:53;;;;;;;7.73;4.37;;;25.30;90.00;25.00;100274;;;;567886;248;24154;-82
2022/10/08 07:36:22;;;;;;;7.90;5.00;;;25.40;80.00;24.40;100275;;;;570228;248;24155;-85
2022/10/08 07:38:47;;;;;;;11.10;5.07;;;24.80;80.30;23.50;100280;;;;568399;248;24137;-83
2022/10/08 07:41:15;;;;;;;5.27;4.30;;;24.80;80.30;23.20;100272;;;;571028;248;24110;-84
2022/10/08 07:43:43;;;;;;;6.57;4.30;;;24.30;81.00;23.00;100278;;;;568776;248;24079;-85
2022/10/08 07:46:14;;;;;;;6.33;4.10;;;23.90;82.40;22.80;100282;;;;568402;248;24135;-84
2022/10/08 07:48:40;;;;;;;5.93;3.57;;;23.60;82.80;22.60;100275;;;;568874;248;24093;-85
2022/10/08 07:51:14;;;;;;;8.37;4.30;;;23.40;83.80;22.30;100270;;;;568082;248;24087;-85
2022/10/08 07:53:44;;;;;;;4.90;4.00;;;23.10;84.20;22.60;100267;;;;570979;248;24075;-82
2022/10/08 07:56:09;;;;;;;4.63;4.07;;;23.10;83.50;23.50;100273;;;;571016;248;24104;-81
2022/10/08 07:58:41;;;;;;;6.70;3.47;;;23.60;81.60;25.00;100267;;;;565531;254;24234;-87
2022/10/08 08:01:05;;;;;;;6.67;4.20;;;24.90;77.80;26.30;100261;;;;571166;246;23110;-85
2022/10/08 08:03:33;;;;;;;4.63;3.43;;;26.30;73.70;27.60;100260;;;;572633;248;23116;-85
2022/10/08 08:06:04;;;;;;;5.17;4.00;;;27.70;68.40;28.60;100257;;;;569601;248;24039;-85
2022/10/08 08:08:32;;;;;;;6.53;4.20;;;28.90;64.30;28.90;100261;;;;580672;248;24209;-82
2022/10/08 08:11:00;;;;;;;5.37;3.43;;;29.80;59.00;29.30;100266;;;;568908;248;23167;-85
2022/10/08 08:13:28;;;;;;;4.33;3.90;;;29.80;59.00;29.50;100266;;;;571021;248;23113;-80
2022/10/08 08:15:59;;;;;;;7.28;3.83;;;30.20;57.90;29.60;100262;;;;571160;248;23104;-85
2022/10/08 08:18:28;;;;;;;5.05;3.95;;;30.10;56.00;29.30;100269;;;;571722;248;24134;-83
2022/10/08 08:21:01;;;;;;;6.93;4.15;;;30.10;56.00;28.50;100270;;;;571286;248;23104;-86
2022/10/08 08:23:32;;;;;;;6.13;3.90;;;29.60;56.40;27.30;100274;;;;571198;248;23098;-83
2022/10/08 08:26:03;;;;;;;5.27;3.93;;;28.70;57.20;26.20;100272;;;;579607;248;23086;-85
2022/10/08 08:28:31;;;;;;;8.37;3.60;;;26.80;59.50;25.40;100277;;;;570678;248;23129;-83
2022/10/08 08:31:17;;;;;;;7.93;3.97;;;26.80;59.50;24.90;100268;;;;568444;248;23086;-85
2022/10/08 08:33:49;;;;;;;6.30;3.50;;;25.30;62.60;24.30;100273;;;;579851;248;23104;-84
2022/10/08 08:36:20;;;;;;;6.80;4.00;;;25.30;62.60;23.90;100273;;;;570820;248;24096;-84
2022/10/08 08:38:48;;;;;;;4.73;3.63;;;24.80;64.50;24.00;100268;;;;579421;248;23162;-85
2022/10/08 08:42:02;;;;;;;5.67;3.77;;;24.70;65.50;24.40;100272;;;;568512;248;23093;-83
2022/10/08 08:44:44;;;;;;;5.50;3.87;;;24.90;66.00;25.20;100269;;;;570826;248;24075;-85
2022/10/08 08:47:12;;;;;;;10.60;4.30;;;25.50;64.60;25.90;100275;;;;569871;248;23096;-83
2022/10/08 08:49:44;;;;;;;4.93;3.57;;;26.20;63.50;26.30;100278;;;;579340;248;23093;-84
2022/10/08 08:52:12;;;;;;;5.40;3.80;;;27.00;61.30;26.30;100271;;;;579279;248;23108;-85
2022/10/08 08:54:40;;;;;;;3.57;3.20;;;27.00;61.20;26.20;100277;;;;570538;248;23097;-84
2022/10/08 08:57:48;;;;;;;5.43;4.03;;;27.00;61.30;26.10;100278;;;;570628;248;23135;-84
2022/10/08 09:00:18;;;;;;;7.97;4.00;;;26.90;61.40;25.50;100274;;;;567979;248;23097;-81
2022/10/08 09:02:55;;;;;;;7.00;3.50;;;26.50;61.10;25.00;100269;;;;565057;248;23206;-84
2022/10/08 09:05:24;;;;;;;8.93;3.90;;;26.00;62.10;24.50;100273;;;;570417;248;23096;-85
2022/10/08 09:07:57;;;;;;;4.80;3.70;;;25.50;63.60;23.90;100281;;;;570073;248;24078;-85
2022/10/08 09:10:27;;;;;;;8.00;3.37;;;24.90;64.20;23.40;100272;;;;566231;248;23172;-81
2022/10/08 09:12:59;;;;;;;11.60;4.00;;;24.30;66.50;23.00;100272;;;;578687;244;24100;-82
2022/10/08 09:15:26;;;;;;;14.47;4.70;;;23.80;67.10;22.50;100270;;;;580294;246;24100;-85
2022/10/08 09:17:54;;;;;;;7.40;3.77;;;23.30;68.20;22.00;100267;;;;579902;248;24090;-79
2022/10/08 09:20:22;;;;;;;6.67;4.07;;;22.80;69.80;21.70;100274;;;;568309;247;24091;-80
2022/10/08 09:22:52;;;;;;;5.53;3.50;;;22.40;71.60;21.30;100267;;;;579265;248;24113;-80
2022/10/08 09:25:27;;;;;;;5.57;3.57;;;22.00;73.00;21.00;100258;;;;570545;248;23158;-81
2022/10/08 09:27:53;;;;;;;4.43;3.37;;;21.70;73.80;20.80;100254;;;;579288;248;23097;-79
2022/10/08 09:30:40;;;;;;;10.20;3.93;;;21.30;76.10;20.70;100261;;;;570458;248;24120;-81
2022/10/08 09:33:17;;;;;;;6.50;3.43;;;21.20;76.10;20.70;100254;;;;570189;248;24121;-83
2022/10/08 09:35:49;;;;;;;4.67;3.50;;;21.20;77.60;20.80;100247;;;;579016;248;24118;-80
2022/10/08 09:38:36;;;;;;;5.47;3.87;;;21.20;77.60;20.80;100256;;;;570411;248;23123;-81
2022/10/08 09:41:09;;;;;;;10.40;3.17;;;21.30;78.10;20.80;100248;;;;579005;248;24104;-81
2022/10/08 09:43:37;;;;;;;10.43;4.07;;;21.30;78.30;20.70;100246;;;;578654;248;23105;-80
2022/10/08 09:46:10;;;;;;;9.37;3.30;;;21.30;78.50;20.70;100253;;;;567863;248;24090;-80
2022/10/08 09:48:36;;;;;;;8.97;3.73;;;21.60;79.40;21.10;100240;;;;570317;248;24100;-80
2022/10/08 09:51:08;;;;;;;7.97;3.80;;;22.00;78.80;21.50;100242;;;;567492;248;24192;-79
2022/10/08 09:53:48;;;;;;;13.27;4.07;;;22.00;78.70;22.20;100251;;;;569631;248;24087;-80
2022/10/08 09:56:16;;;;;;;4.97;3.77;;;22.60;77.50;22.50;100246;;;;578418;245;24119;-80
2022/10/08 09:59:02;;;;;;;7.40;3.93;;;23.10;75.50;22.60;100245;;;;578314;248;24101;-80
2022/10/08 10:01:33;;;;;;;5.03;3.43;;;23.30;74.80;22.60;100233;;;;570186;248;24097;-83
2022/10/08 10:04:05;;;;;;;4.10;2.93;;;23.30;73.50;22.50;100233;;;;567425;248;24144;-80
2022/10/08 10:06:32;;;;;;;9.13;3.97;;;23.30;73.50;22.50;100231;;;;569685;248;23152;-82
2022/10/08 10:09:18;;;;;;;4.67;3.07;;;23.20;73.80;22.40;100231;;;;570196;248;24087;-83
2022/10/08 10:12:01;;;;;;;4.47;3.00;;;23.20;74.00;22.30;100226;;;;566396;248;24147;-82
2022/10/08 10:14:55;;;;;;;5.00;2.80;;;22.80;73.80;22.10;100225;;;;569476;248;24129;-81
2022/10/08 10:17:34;;;;;;;7.60;3.20;;;22.80;73.80;21.90;100221;;;;569755;248;23136;-81
2022/10/08 10:20:06;;;;;;;5.40;2.80;;;22.40;75.30;21.80;100226;;;;570140;248;24183;-83
2022/10/08 10:22:39;;;;;;;6.35;2.85;;;22.40;74.70;21.90;100219;;;;573846;247;35344;-84
2022/10/08 10:25:13;;;;;;;6.90;2.83;;;22.50;75.20;21.90;100220;;;;579014;246;24074;-83
2022/10/08 10:27:44;;;;;;;5.83;2.83;;;22.50;75.00;21.90;100214;;;;571533;248;23162;-82
2022/10/08 10:30:25;;;;;;;3.70;2.27;;;22.40;75.00;21.80;100211;;;;579582;248;24090;-83
2022/10/08 10:33:05;;;;;;;5.83;3.23;;;22.40;75.00;21.70;100204;;;;574311;248;23098;-80
2022/10/08 10:35:33;;;;;;;5.50;2.40;;;22.30;75.10;21.50;100204;;;;579109;248;24163;-83
2022/10/08 10:38:12;;;;;;;5.33;2.77;;;22.10;75.50;21.40;100204;;;;579189;248;24135;-84
2022/10/08 10:40:49;;;;;;;2.53;2.10;;;21.90;75.60;21.30;100209;;;;570677;248;23105;-82
2022/10/08 10:43:25;;;;;;;4.67;3.00;;;21.70;77.90;21.20;100205;;;;579041;248;24165;-80
2022/10/08 10:45:53;;;;;;;4.20;2.50;;;21.60;77.80;21.10;100200;;;;578761;248;24073;-80
2022/10/08 10:48:22;;;;;;;3.03;2.20;;;21.50;78.00;21.00;100200;;;;578832;248;24085;-79
2022/10/08 10:51:36;;;;;;;5.40;2.60;;;21.40;78.40;20.90;100196;;;;579128;248;24167;-80
2022/10/08 10:54:46;;;;;;;4.00;2.27;;;21.30;78.20;20.90;100192;;;;579711;247;24137;-80
2022/10/08 10:57:17;;;;;;;7.63;3.13;;;21.40;78.90;20.80;100199;;;;580047;246;23101;-81
2022/10/08 10:59:46;;;;;;;3.72;2.67;;;21.30;78.00;20.70;100198;;;;563294;247;35256;-81
2022/10/08 11:02:13;;;;;;;7.60;2.53;;;21.20;78.30;20.60;100192;;;;578660;248;23137;-81
2022/10/08 11:04:53;;;;;;;10.37;2.70;;;21.10;77.90;20.40;100194;;;;578465;248;24114;-81
2022/10/08 11:07:45;;;;;;;5.53;2.13;;;20.70;78.50;20.20;100193;;;;578151;248;23222;-82
2022/10/08 11:10:27;;;;;;;3.87;2.60;;;20.70;78.50;20.00;100181;;;;570074;248;23143;-82
2022/10/08 11:12:53;;;;;;;6.37;2.20;;;20.60;78.90;19.90;100181;;;;578211;244;23138;-84
2022/10/08 11:15:36;;;;;;;4.87;2.20;;;20.40;79.90;19.90;100184;;;;569965;248;24082;-84
2022/10/08 11:18:31;;;;;;;4.47;2.43;;;20.40;80.70;19.70;100187;;;;578586;248;24125;-81
2022/10/08 11:21:05;;;;;;;4.73;2.80;;;20.30;81.20;19.60;100177;;;;578430;248;24129;-85
2022/10/08 11:23:57;;;;;;;8.17;2.87;;;20.10;82.00;19.60;100176;;;;577770;248;24151;-84
2022/10/08 11:27:01;;;;;;;6.73;2.50;;;20.10;82.60;19.60;100169;;;;567803;248;24079;-84
2022/10/08 11:30:03;;;;;;;4.90;2.40;;;20.00;83.30;19.50;100167;;;;570260;248;23114;-83
2022/10/08 11:32:31;;;;;;;5.40;2.43;;;20.00;83.40;19.40;100171;;;;578393;248;23124;-84
2022/10/08 11:35:17;;;;;;;11.30;2.63;;;19.90;83.80;19.40;100167;;;;578383;248;24131;-84
2022/10/08 11:37:47;;;;;;;4.13;2.90;;;19.90;84.50;19.40;100172;;;;571617;248;24071;-83